createdAt,value
2023-12-21T00:00:16.415Z,97613.23
2023-12-21T00:02:43.310Z,97612.77
2023-12-21T00:05:10.846Z,97611.69
2023-12-21T00:07:37.942Z,97606.30
2023-12-21T00:10:05.470Z,97604.88
2023-12-21T00:12:32.849Z,97603.09
2023-12-21T00:14:59.720Z,97601.30
2023-12-21T00:17:26.622Z,97595.19
2023-12-21T00:19:57.244Z,97590.30
2023-12-21T00:22:24.799Z,97584.13
2023-12-21T00:24:51.726Z,97578.45
2023-12-21T00:27:18.790Z,97578.87
2023-12-21T00:29:45.647Z,97572.34
2023-12-21T00:32:13.787Z,97566.86
2023-12-21T00:34:40.899Z,97562.52
2023-12-21T00:37:07.835Z,97561.08
2023-12-21T00:39:34.773Z,97562.66
2023-12-21T00:42:01.640Z,97556.64
2023-12-21T00:44:28.487Z,97553.51
2023-12-21T00:46:55.376Z,97554.96
2023-12-21T00:49:22.401Z,97557.80
2023-12-21T00:51:49.539Z,97552.27
2023-12-21T00:54:16.426Z,97548.33
2023-12-21T00:56:43.527Z,97546.13
2023-12-21T00:59:10.458Z,97539.79
2023-12-21T01:01:38.007Z,97538.10
2023-12-21T01:04:05.678Z,97538.11
2023-12-21T01:06:32.590Z,97537.19
2023-12-21T01:08:59.469Z,97538.20
2023-12-21T01:11:26.760Z,97541.33
2023-12-21T01:13:53.565Z,97538.84
2023-12-21T01:16:20.435Z,97533.27
2023-12-21T01:18:47.989Z,97534.80
2023-12-21T01:21:14.992Z,97532.72
2023-12-21T01:23:42.946Z,97535.98
2023-12-21T01:26:09.775Z,97530.20
2023-12-21T01:28:36.733Z,97527.50
2023-12-21T01:31:04.094Z,97524.23
2023-12-21T01:33:31.130Z,97515.69
2023-12-21T01:35:58.225Z,97509.94
2023-12-21T01:38:25.212Z,97507.27
2023-12-21T01:40:52.396Z,97507.80
2023-12-21T01:43:19.428Z,97501.70
2023-12-21T01:45:46.648Z,97502.47
2023-12-21T01:48:13.784Z,97501.60
2023-12-21T01:50:44.168Z,97499.85
2023-12-21T01:53:13.147Z,97495.52
2023-12-21T01:55:40.601Z,97488.70
2023-12-21T01:58:07.670Z,97490.12
2023-12-21T02:00:34.715Z,97489.30
2023-12-21T02:03:02.599Z,97488.29
2023-12-21T02:05:29.474Z,97479.50
2023-12-21T02:07:56.387Z,97476.17
2023-12-21T02:10:23.254Z,97474.04
2023-12-21T02:12:50.416Z,97469.60
2023-12-21T02:15:17.414Z,97469.98
2023-12-21T02:17:48.059Z,97464.23
2023-12-21T02:20:16.217Z,97462.60
2023-12-21T02:22:46.032Z,97463.47
2023-12-21T02:25:13.730Z,97459.57
2023-12-21T02:27:40.743Z,97452.72
2023-12-21T02:30:08.287Z,97447.14
2023-12-21T02:32:35.312Z,97444.77
2023-12-21T02:35:03.996Z,97437.60
2023-12-21T02:37:32.358Z,97439.59
2023-12-21T02:39:59.294Z,97432.92
2023-12-21T02:42:26.349Z,97428.02
2023-12-21T02:44:53.292Z,97422.02
2023-12-21T02:47:20.185Z,97422.47
2023-12-21T02:49:47.786Z,97411.10
2023-12-21T02:52:15.561Z,97405.40
2023-12-21T02:54:42.425Z,97396.44
2023-12-21T02:57:09.290Z,97387.52
2023-12-21T02:59:36.194Z,97385.66
2023-12-21T03:02:03.170Z,97381.60
2023-12-21T03:04:30.003Z,97379.72
2023-12-21T03:06:57.119Z,97373.80
2023-12-21T03:09:24.024Z,97367.16
2023-12-21T03:11:50.901Z,97361.23
2023-12-21T03:14:17.811Z,97358.71
2023-12-21T03:16:44.717Z,97349.46
2023-12-21T03:19:11.850Z,97343.06
2023-12-21T03:21:38.756Z,97340.59
2023-12-21T03:24:06.052Z,97331.34
2023-12-21T03:26:33.302Z,97325.87
2023-12-21T03:29:00.171Z,97316.31
2023-12-21T03:31:27.393Z,97310.69
2023-12-21T03:33:54.414Z,97304.19
2023-12-21T03:36:21.826Z,97301.70
2023-12-21T03:38:49.049Z,97297.25
2023-12-21T03:41:15.937Z,97295.45
2023-12-21T03:43:42.972Z,97289.56
2023-12-21T03:46:10.912Z,97284.79
2023-12-21T03:48:37.898Z,97286.50
2023-12-21T03:51:05.389Z,97278.27
2023-12-21T03:53:32.582Z,97270.73
2023-12-21T03:55:59.435Z,97262.89
2023-12-21T03:58:26.371Z,97254.11
2023-12-21T04:00:53.614Z,97248.80
2023-12-21T04:03:20.706Z,97248.55
2023-12-21T04:05:47.606Z,97243.09
2023-12-21T04:08:16.306Z,97243.67
2023-12-21T04:10:43.335Z,97241.77
2023-12-21T04:13:10.288Z,97230.69
2023-12-21T04:15:37.636Z,97231.52
2023-12-21T04:18:04.714Z,97233.27
2023-12-21T04:20:31.657Z,97228.20
2023-12-21T04:22:58.532Z,97231.98
2023-12-21T04:25:25.490Z,97227.14
2023-12-21T04:27:53.615Z,97224.27
2023-12-21T04:30:20.675Z,97215.88
2023-12-21T04:32:48.243Z,97215.97
2023-12-21T04:35:15.404Z,97206.58
2023-12-21T04:37:42.409Z,97194.70
2023-12-21T04:40:10.455Z,97198.02
2023-12-21T04:42:37.468Z,97188.55
2023-12-21T04:45:04.601Z,97186.94
2023-12-21T04:47:31.574Z,97188.39
2023-12-21T04:49:58.562Z,97182.50
2023-12-21T04:52:25.784Z,97173.09
2023-12-21T04:54:55.757Z,97172.29
2023-12-21T04:57:24.373Z,97164.92
2023-12-21T04:59:51.845Z,97159.16
2023-12-21T05:02:19.295Z,97158.86
2023-12-21T05:04:46.256Z,97154.00
2023-12-21T05:07:13.302Z,97145.95
2023-12-21T05:09:40.335Z,97137.51
2023-12-21T05:12:07.401Z,97127.06
2023-12-21T05:14:34.374Z,97121.40
2023-12-21T05:17:01.363Z,97120.11
2023-12-21T05:19:28.229Z,97117.43
2023-12-21T05:21:55.199Z,97118.61
2023-12-21T05:24:22.051Z,97109.04
2023-12-21T05:26:48.911Z,97105.43
2023-12-21T05:29:16.006Z,97111.05
2023-12-21T05:31:44.247Z,97106.75
2023-12-21T05:34:11.419Z,97108.85
2023-12-21T05:36:38.439Z,97104.05
2023-12-21T05:39:17.317Z,97096.75
2023-12-21T05:44:29.700Z,97094.16
2023-12-21T05:46:56.660Z,97087.32
2023-12-21T05:49:24.454Z,97084.95
2023-12-21T05:51:51.318Z,97075.00
2023-12-21T05:54:18.232Z,97075.40
2023-12-21T05:56:45.227Z,97076.42
2023-12-21T05:59:12.581Z,97071.21
2023-12-21T06:01:40.524Z,97073.15
2023-12-21T06:04:07.522Z,97066.27
2023-12-21T06:06:34.571Z,97066.05
2023-12-21T06:09:01.477Z,97062.25
2023-12-21T06:11:29.793Z,97058.52
2023-12-21T06:13:56.872Z,97061.36
2023-12-21T06:16:23.773Z,97064.57
2023-12-21T06:18:51.790Z,97058.33
2023-12-21T06:21:18.764Z,97057.53
2023-12-21T06:23:45.699Z,97061.75
2023-12-21T06:26:12.582Z,97063.30
2023-12-21T06:28:39.613Z,97062.16
2023-12-21T06:31:06.978Z,97065.75
2023-12-21T06:33:34.097Z,97075.19
2023-12-21T06:36:01.178Z,97067.73
2023-12-21T06:38:28.133Z,97068.84
2023-12-21T06:40:55.013Z,97068.84
2023-12-21T06:43:23.798Z,97069.98
2023-12-21T06:45:51.005Z,97065.79
2023-12-21T06:48:18.049Z,97060.66
2023-12-21T06:50:45.665Z,97064.38
2023-12-21T06:53:16.756Z,97060.05
2023-12-21T06:55:44.282Z,97061.43
2023-12-21T06:58:11.810Z,97059.24
2023-12-21T07:00:39.022Z,97058.59
2023-12-21T07:03:06.009Z,97065.14
2023-12-21T07:05:32.918Z,97064.78
2023-12-21T07:07:59.927Z,97059.83
2023-12-21T07:10:26.862Z,97061.02
2023-12-21T07:12:53.900Z,97059.14
2023-12-21T07:15:20.784Z,97064.00
2023-12-21T07:17:47.630Z,97068.88
2023-12-21T07:20:14.600Z,97067.11
2023-12-21T07:22:41.515Z,97067.35
2023-12-21T07:25:09.096Z,97061.23
2023-12-21T07:27:36.057Z,97053.58
2023-12-21T07:30:03.249Z,97068.30
2023-12-21T07:32:30.483Z,97065.66
2023-12-21T07:34:58.152Z,97062.39
2023-12-21T07:37:25.045Z,97057.45
2023-12-21T07:39:51.980Z,97054.42
2023-12-21T07:42:18.989Z,97049.38
2023-12-21T07:44:46.463Z,97055.52
2023-12-21T07:47:13.321Z,97053.77
2023-12-21T07:49:40.206Z,97048.55
2023-12-21T07:52:08.472Z,97045.27
2023-12-21T07:54:35.523Z,97045.80
2023-12-21T07:57:02.423Z,97051.54
2023-12-21T07:59:29.525Z,97049.64
2023-12-21T08:01:56.453Z,97047.12
2023-12-21T08:04:23.488Z,97043.44
2023-12-21T08:06:50.382Z,97037.17
2023-12-21T08:09:17.182Z,97037.77
2023-12-21T08:11:44.077Z,97036.23
2023-12-21T08:14:10.926Z,97030.09
2023-12-21T08:16:38.283Z,97031.08
2023-12-21T08:19:05.365Z,97023.58
2023-12-21T08:21:32.363Z,97015.80
2023-12-21T08:24:14.951Z,97014.00
2023-12-21T08:26:42.088Z,97016.14
2023-12-21T08:29:08.975Z,97007.13
2023-12-21T08:31:35.993Z,96999.17
2023-12-21T08:34:03.673Z,97001.63
2023-12-21T08:36:30.949Z,96997.02
2023-12-21T08:38:58.404Z,96986.00
2023-12-21T08:41:27.083Z,96989.18
2023-12-21T08:43:56.279Z,96981.30
2023-12-21T08:46:23.219Z,96970.48
2023-12-21T08:48:50.132Z,96964.12
2023-12-21T08:51:19.694Z,96956.77
2023-12-21T08:53:47.099Z,96957.88
2023-12-21T08:56:14.697Z,96954.83
2023-12-21T08:58:41.904Z,96948.84
2023-12-21T09:01:10.412Z,96940.85
2023-12-21T09:03:37.349Z,96922.31
2023-12-21T09:06:04.532Z,96913.98
2023-12-21T09:08:31.554Z,96903.95
2023-12-21T09:10:58.492Z,96892.43
2023-12-21T09:13:25.391Z,96883.53
2023-12-21T09:15:52.312Z,96871.52
2023-12-21T09:18:19.997Z,96856.54
2023-12-21T09:20:47.087Z,96842.81
2023-12-21T09:23:14.377Z,96839.14
2023-12-21T09:25:41.411Z,96821.64
2023-12-21T09:28:08.397Z,96819.23
2023-12-21T09:30:35.661Z,96807.86
2023-12-21T09:33:02.650Z,96804.16
2023-12-21T09:35:30.062Z,96797.76
2023-12-21T09:37:57.026Z,96791.83
2023-12-21T09:40:26.544Z,96781.65
2023-12-21T09:43:04.907Z,96786.52
2023-12-21T09:45:38.118Z,96782.66
2023-12-21T09:48:06.530Z,96778.77
2023-12-21T09:50:33.596Z,96780.52
2023-12-21T09:53:01.955Z,96773.32
2023-12-21T09:55:32.602Z,96775.83
2023-12-21T09:58:01.326Z,96780.03
2023-12-21T10:00:30.573Z,96769.36
2023-12-21T10:02:57.487Z,96765.23
2023-12-21T10:05:24.499Z,96755.01
2023-12-21T10:07:51.409Z,96741.77
2023-12-21T10:10:19.691Z,96738.83
2023-12-21T10:12:46.839Z,96727.63
2023-12-21T10:15:14.554Z,96722.33
2023-12-21T10:17:41.858Z,96724.58
2023-12-21T10:20:13.345Z,96717.80
2023-12-21T10:22:41.619Z,96707.81
2023-12-21T10:25:09.601Z,96693.48
2023-12-21T10:27:37.565Z,96687.16
2023-12-21T10:30:05.942Z,96676.44
2023-12-21T10:32:33.496Z,96668.94
2023-12-21T10:35:01.226Z,96667.61
2023-12-21T10:37:29.336Z,96655.95
2023-12-21T10:39:58.151Z,96646.03
2023-12-21T10:42:25.603Z,96632.33
2023-12-21T10:44:52.692Z,96623.21
2023-12-21T10:47:22.461Z,96610.04
2023-12-21T10:49:52.272Z,96604.98
2023-12-21T10:52:20.685Z,96601.22
2023-12-21T10:54:48.073Z,96600.98
2023-12-21T10:57:16.574Z,96598.20
2023-12-21T10:59:44.894Z,96584.21
2023-12-21T11:02:15.288Z,96583.42
2023-12-21T11:04:45.447Z,96583.50
2023-12-21T11:07:15.480Z,96581.70
2023-12-21T11:09:43.512Z,96577.48
2023-12-21T11:12:10.426Z,96554.41
2023-12-21T11:14:38.155Z,96547.52
2023-12-21T11:17:11.590Z,96549.31
2023-12-21T11:19:40.914Z,96544.39
2023-12-21T11:22:08.214Z,96536.48
2023-12-21T11:24:35.673Z,96536.36
2023-12-21T11:27:03.407Z,96523.30
2023-12-21T11:29:30.724Z,96521.73
2023-12-21T11:31:58.389Z,96514.84
2023-12-21T11:34:41.319Z,96508.73
2023-12-21T11:37:25.912Z,96507.08
2023-12-21T11:39:54.609Z,96499.41
2023-12-21T11:42:22.766Z,96486.02
2023-12-21T11:44:53.535Z,96487.82
2023-12-21T11:47:21.610Z,96482.70
2023-12-21T11:49:48.843Z,96473.31
2023-12-21T11:52:25.055Z,96458.13
2023-12-21T11:54:52.145Z,96457.03
2023-12-21T11:57:19.139Z,96446.26
2023-12-21T11:59:46.225Z,96445.61
2023-12-21T12:02:15.959Z,96441.41
2023-12-21T12:04:49.294Z,96440.71
2023-12-21T12:07:19.434Z,96439.25
2023-12-21T12:09:47.111Z,96434.83
2023-12-21T12:12:14.082Z,96426.87
2023-12-21T12:14:40.940Z,96424.80
2023-12-21T12:17:07.789Z,96416.41
2023-12-21T12:19:38.450Z,96403.05
2023-12-21T12:22:05.580Z,96393.96
2023-12-21T12:24:32.668Z,96386.76
2023-12-21T12:26:59.948Z,96376.23
2023-12-21T12:29:30.765Z,96370.80
2023-12-21T12:31:57.902Z,96360.48
2023-12-21T12:34:24.949Z,96352.23
2023-12-21T12:36:56.104Z,96343.58
2023-12-21T12:39:23.595Z,96335.38
2023-12-21T12:41:55.970Z,96330.86
2023-12-21T12:44:25.588Z,96325.98
2023-12-21T12:46:52.794Z,96323.54
2023-12-21T12:49:19.930Z,96318.40
2023-12-21T12:51:46.825Z,96311.06
2023-12-21T12:54:14.257Z,96305.41
2023-12-21T12:56:50.003Z,96297.94
2023-12-21T12:59:20.673Z,96294.98
2023-12-21T13:01:47.816Z,96286.64
2023-12-21T13:04:15.361Z,96283.77
2023-12-21T13:06:42.437Z,96277.83
2023-12-21T13:09:09.533Z,96270.98
2023-12-21T13:11:36.483Z,96266.46
2023-12-21T13:14:05.524Z,96259.92
2023-12-21T13:16:32.479Z,96257.72
2023-12-21T13:18:59.418Z,96250.20
2023-12-21T13:21:26.371Z,96242.55
2023-12-21T13:23:53.279Z,96238.80
2023-12-21T13:26:20.627Z,96233.68
2023-12-21T13:28:48.330Z,96230.05
2023-12-21T13:31:15.631Z,96220.50
2023-12-21T13:33:42.981Z,96207.73
2023-12-21T13:36:10.040Z,96202.52
2023-12-21T13:38:39.147Z,96197.02
2023-12-21T13:41:09.858Z,96191.13
2023-12-21T13:43:38.295Z,96184.25
2023-12-21T13:46:05.916Z,96171.64
2023-12-21T13:48:33.044Z,96165.29
2023-12-21T13:51:00.634Z,96163.19
2023-12-21T13:53:27.500Z,96157.45
2023-12-21T13:55:54.588Z,96151.52
2023-12-21T13:58:21.932Z,96143.84
2023-12-21T14:00:49.550Z,96141.33
2023-12-21T14:03:17.697Z,96133.14
2023-12-21T14:05:44.649Z,96122.64
2023-12-21T14:08:11.655Z,96109.88
2023-12-21T14:10:38.714Z,96106.48
2023-12-21T14:13:05.627Z,96099.31
2023-12-21T14:15:32.573Z,96095.30
2023-12-21T14:17:59.486Z,96090.10
2023-12-21T14:20:26.671Z,96084.65
2023-12-21T14:22:53.781Z,96077.25
2023-12-21T14:25:20.896Z,96069.71
2023-12-21T14:27:49.099Z,96064.63
2023-12-21T14:30:16.072Z,96051.36
2023-12-21T14:32:44.199Z,96043.20
2023-12-21T14:35:11.490Z,96044.77
2023-12-21T14:37:38.524Z,96031.20
2023-12-21T14:40:06.190Z,96022.52
2023-12-21T14:42:33.064Z,96015.10
2023-12-21T14:44:59.976Z,96006.52
2023-12-21T14:47:31.290Z,95994.36
2023-12-21T14:49:58.349Z,95990.00
2023-12-21T14:52:26.109Z,95987.00
2023-12-21T14:54:52.974Z,95980.65
2023-12-21T14:57:19.781Z,95974.50
2023-12-21T14:59:46.698Z,95967.73
2023-12-21T15:02:13.703Z,95968.18
2023-12-21T15:04:40.610Z,95959.28
2023-12-21T15:07:08.478Z,95949.86
2023-12-21T15:09:37.506Z,95944.77
2023-12-21T15:12:05.108Z,95936.16
2023-12-21T15:14:32.636Z,95931.14
2023-12-21T15:17:00.647Z,95928.38
2023-12-21T15:19:32.701Z,95922.34
2023-12-21T15:22:01.013Z,95907.98
2023-12-21T15:24:28.149Z,95899.39
2023-12-21T15:26:55.292Z,95892.18
2023-12-21T15:29:22.367Z,95889.95
2023-12-21T15:31:49.500Z,95881.14
2023-12-21T15:34:16.645Z,95876.13
2023-12-21T15:36:43.676Z,95859.06
2023-12-21T15:39:10.803Z,95858.63
2023-12-21T15:41:37.696Z,95851.44
2023-12-21T15:44:04.736Z,95847.49
2023-12-21T15:46:33.660Z,95838.24
2023-12-21T15:49:01.959Z,95835.27
2023-12-21T15:51:28.862Z,95829.88
2023-12-21T15:53:55.687Z,95822.11
2023-12-21T15:56:23.440Z,95814.81
2023-12-21T15:58:50.325Z,95808.64
2023-12-21T16:01:20.586Z,95798.91
2023-12-21T16:03:47.980Z,95799.23
2023-12-21T16:06:15.102Z,95780.36
2023-12-21T16:08:42.193Z,95774.71
2023-12-21T16:11:11.333Z,95764.31
2023-12-21T16:13:38.747Z,95758.89
2023-12-21T16:16:06.102Z,95751.84
2023-12-21T16:18:33.122Z,95741.25
2023-12-21T16:21:01.536Z,95734.73
2023-12-21T16:23:28.405Z,95734.21
2023-12-21T16:25:55.707Z,95724.73
2023-12-21T16:28:22.965Z,95715.44
2023-12-21T16:30:49.862Z,95710.81
2023-12-21T16:33:19.927Z,95707.27
2023-12-21T16:35:47.133Z,95701.35
2023-12-21T16:38:16.050Z,95688.16
2023-12-21T16:40:43.005Z,95677.15
2023-12-21T16:43:09.966Z,95674.25
2023-12-21T16:45:37.169Z,95664.94
2023-12-21T16:48:04.316Z,95666.95
2023-12-21T16:50:31.353Z,95660.84
2023-12-21T16:52:58.435Z,95662.39
2023-12-21T16:55:25.710Z,95659.13
2023-12-21T16:57:52.705Z,95659.22
2023-12-21T17:00:45.498Z,95643.56
2023-12-21T17:03:22.356Z,95643.82
2023-12-21T17:05:49.328Z,95639.95
2023-12-21T17:08:16.245Z,95633.55
2023-12-21T17:10:43.993Z,95632.90
2023-12-21T17:13:10.912Z,95625.91
2023-12-21T17:15:37.891Z,95618.23
2023-12-21T17:18:05.106Z,95616.55
2023-12-21T17:20:34.337Z,95616.52
2023-12-21T17:23:03.196Z,95613.29
2023-12-21T17:25:30.434Z,95608.45
2023-12-21T17:27:57.759Z,95606.37
2023-12-21T17:30:26.433Z,95595.79
2023-12-21T17:32:53.569Z,95587.29
2023-12-21T17:35:20.731Z,95583.55
2023-12-21T17:37:49.211Z,95576.11
2023-12-21T17:40:16.946Z,95567.66
2023-12-21T17:42:44.416Z,95564.71
2023-12-21T17:45:12.028Z,95568.36
2023-12-21T17:47:39.387Z,95565.48
2023-12-21T17:50:07.316Z,95561.98
2023-12-21T17:52:34.370Z,95558.60
2023-12-21T17:55:01.559Z,95554.92
2023-12-21T17:57:28.736Z,95549.34
2023-12-21T17:59:56.442Z,95555.71
2023-12-21T18:02:23.444Z,95550.62
2023-12-21T18:04:54.506Z,95536.55
2023-12-21T18:07:25.426Z,95524.17
2023-12-21T18:09:54.541Z,95534.48
2023-12-21T18:12:22.119Z,95520.46
2023-12-21T18:14:49.167Z,95519.20
2023-12-21T18:17:16.068Z,95529.98
2023-12-21T18:19:44.173Z,95523.02
2023-12-21T18:22:15.073Z,95511.91
2023-12-21T18:24:45.906Z,95500.95
2023-12-21T18:27:13.655Z,95493.14
2023-12-21T18:29:41.151Z,95484.41
2023-12-21T18:32:08.066Z,95475.76
2023-12-21T18:34:35.340Z,95470.08
2023-12-21T18:37:02.289Z,95472.66
2023-12-21T18:39:29.154Z,95472.94
2023-12-21T18:41:56.656Z,95469.12
2023-12-21T18:44:23.499Z,95467.05
2023-12-21T18:46:53.466Z,95463.34
2023-12-21T18:49:20.983Z,95460.04
2023-12-21T18:51:48.291Z,95453.77
2023-12-21T18:54:15.235Z,95447.27
2023-12-21T18:56:42.141Z,95436.32
2023-12-21T18:59:09.137Z,95428.16
2023-12-21T19:01:36.130Z,95425.21
2023-12-21T19:04:03.271Z,95430.30
2023-12-21T19:06:30.527Z,95429.87
2023-12-21T19:08:58.643Z,95424.59
2023-12-21T19:11:26.921Z,95412.86
2023-12-21T19:13:53.938Z,95406.40
2023-12-21T19:16:20.983Z,95400.08
2023-12-21T19:18:49.583Z,95386.04
2023-12-21T19:21:17.348Z,95398.33
2023-12-21T19:23:44.988Z,95388.31
2023-12-21T19:26:12.545Z,95388.71
2023-12-21T19:28:41.871Z,95390.50
2023-12-21T19:31:10.171Z,95391.30
2023-12-21T19:33:37.629Z,95394.30
2023-12-21T19:36:06.525Z,95384.44
2023-12-21T19:38:33.710Z,95387.98
2023-12-21T19:41:02.315Z,95384.13
2023-12-21T19:43:29.451Z,95376.39
2023-12-21T19:46:01.053Z,95374.86
2023-12-21T19:48:28.085Z,95378.42
2023-12-21T19:50:55.430Z,95383.46
2023-12-21T19:53:24.997Z,95365.52
2023-12-21T19:55:52.748Z,95361.34
2023-12-21T19:58:19.998Z,95366.86
2023-12-21T20:00:47.639Z,95365.33
2023-12-21T20:03:15.396Z,95357.67
2023-12-21T20:05:42.854Z,95353.73
2023-12-21T20:08:10.726Z,95345.30
2023-12-21T20:10:41.259Z,95338.40
2023-12-21T20:13:09.731Z,95337.26
2023-12-21T20:15:38.994Z,95335.55
2023-12-21T20:18:06.354Z,95339.89
2023-12-21T20:20:34.146Z,95335.21
2023-12-21T20:23:01.732Z,95341.10
2023-12-21T20:25:28.744Z,95341.25
2023-12-21T20:27:56.710Z,95342.44
2023-12-21T20:30:25.136Z,95345.09
2023-12-21T20:32:52.412Z,95350.25
2023-12-21T20:35:19.857Z,95342.77
2023-12-21T20:37:47.781Z,95354.88
2023-12-21T20:40:18.365Z,95359.54
2023-12-21T20:42:47.386Z,95360.16
2023-12-21T20:45:14.944Z,95373.20
2023-12-21T20:47:49.372Z,95371.65
2023-12-21T20:50:18.825Z,95375.98
2023-12-21T20:52:46.228Z,95373.77
2023-12-21T20:55:16.551Z,95384.96
2023-12-21T20:57:44.577Z,95380.76
2023-12-21T21:00:12.399Z,95379.70
2023-12-21T21:02:40.042Z,95392.54
2023-12-21T21:05:07.546Z,95395.50
2023-12-21T21:07:35.414Z,95376.30
2023-12-21T21:10:02.334Z,95367.44
2023-12-21T21:12:29.178Z,95382.45
2023-12-21T21:14:56.333Z,95373.20
2023-12-21T21:17:25.545Z,95356.41
2023-12-21T21:19:53.656Z,95336.59
2023-12-21T21:22:20.703Z,95322.20
2023-12-21T21:24:47.872Z,95322.77
2023-12-21T21:27:14.684Z,95328.29
2023-12-21T21:29:41.663Z,95334.16
2023-12-21T21:32:08.901Z,95334.44
2023-12-21T21:34:37.708Z,95351.15
2023-12-21T21:37:04.800Z,95355.52
2023-12-21T21:39:33.720Z,95364.48
2023-12-21T21:42:01.357Z,95362.59
2023-12-21T21:44:31.184Z,95356.79
2023-12-21T21:47:00.694Z,95357.02
2023-12-21T21:49:27.777Z,95362.77
2023-12-21T21:51:54.836Z,95372.04
2023-12-21T21:54:22.966Z,95390.34
2023-12-21T21:56:49.972Z,95397.44
2023-12-21T21:59:16.914Z,95401.59
2023-12-21T22:01:46.931Z,95408.23
2023-12-21T22:04:16.976Z,95416.33
2023-12-21T22:06:44.111Z,95418.84
2023-12-21T22:09:26.741Z,95417.20
2023-12-21T22:11:53.593Z,95416.58
2023-12-21T22:14:20.428Z,95418.40
2023-12-21T22:16:49.654Z,95423.61
2023-12-21T22:19:17.607Z,95426.75
2023-12-21T22:21:44.816Z,95430.52
2023-12-21T22:24:11.754Z,95432.02
2023-12-21T22:26:38.586Z,95441.52
2023-12-21T22:29:05.467Z,95442.29
2023-12-21T22:31:32.426Z,95450.40
2023-12-21T22:33:59.393Z,95455.52
2023-12-21T22:36:26.258Z,95454.70
2023-12-21T22:38:53.341Z,95452.63
2023-12-21T22:41:20.918Z,95442.78
2023-12-21T22:43:47.818Z,95434.84
2023-12-21T22:46:14.914Z,95428.64
2023-12-21T22:48:43.581Z,95432.13
2023-12-21T22:51:10.928Z,95443.14
2023-12-21T22:53:37.829Z,95448.58
2023-12-21T22:56:04.883Z,95457.70
2023-12-21T22:58:32.060Z,95464.05
2023-12-21T23:00:58.959Z,95462.52
2023-12-21T23:03:25.953Z,95468.11
2023-12-21T23:05:53.116Z,95462.27
2023-12-21T23:08:20.049Z,95459.77
2023-12-21T23:10:47.010Z,95454.64
2023-12-21T23:13:18.938Z,95457.45
2023-12-21T23:15:46.461Z,95458.61
2023-12-21T23:18:14.012Z,95476.88
2023-12-21T23:20:41.070Z,95486.48
2023-12-21T23:23:08.161Z,95493.52
2023-12-21T23:25:35.136Z,95496.95
2023-12-21T23:28:01.991Z,95492.80
2023-12-21T23:30:28.896Z,95491.05
2023-12-21T23:32:55.860Z,95479.63
2023-12-21T23:35:23.828Z,95483.60
2023-12-21T23:37:51.473Z,95486.00
2023-12-21T23:40:18.961Z,95498.42
2023-12-21T23:42:46.345Z,95493.59
2023-12-21T23:45:13.575Z,95498.02
2023-12-21T23:47:40.697Z,95499.73
2023-12-21T23:50:08.455Z,95497.97
2023-12-21T23:52:35.511Z,95498.31
2023-12-21T23:55:02.776Z,95497.92
2023-12-21T23:57:29.660Z,95494.67
2023-12-21T23:59:56.551Z,95501.71
